sensor_id;sensor_type;location;lat;lon;timestamp;P1;durP1;ratioP1;P2;durP2;ratioP2
73841;SDS011;62184;52.006;5.924;2022-09-13T00:02:07;14.80;;;9.50;;
73841;SDS011;62184;52.006;5.924;2022-09-13T00:04:33;13.98;;;9.45;;
73841;SDS011;62184;52.006;5.924;2022-09-13T00:06:59;13.55;;;8.75;;
73841;SDS011;62184;52.006;5.924;2022-09-13T00:09:28;14.10;;;9.52;;
73841;SDS011;62184;52.006;5.924;2022-09-13T00:11:55;15.32;;;9.63;;
73841;SDS011;62184;52.006;5.924;2022-09-13T00:14:21;13.73;;;9.95;;
73841;SDS011;62184;52.006;5.924;2022-09-13T00:16:47;15.80;;;10.07;;
73841;SDS011;62184;52.006;5.924;2022-09-13T00:19:14;14.82;;;9.80;;
73841;SDS011;62184;52.006;5.924;2022-09-13T00:21:40;13.80;;;9.98;;
73841;SDS011;62184;52.006;5.924;2022-09-13T00:24:07;14.80;;;9.55;;
73841;SDS011;62184;52.006;5.924;2022-09-13T00:26:36;15.13;;;9.80;;
73841;SDS011;62184;52.006;5.924;2022-09-13T00:29:02;14.65;;;10.55;;
73841;SDS011;62184;52.006;5.924;2022-09-13T00:31:28;15.05;;;9.90;;
73841;SDS011;62184;52.006;5.924;2022-09-13T00:33:57;15.70;;;9.97;;
73841;SDS011;62184;52.006;5.924;2022-09-13T00:36:24;15.23;;;9.98;;
73841;SDS011;62184;52.006;5.924;2022-09-13T00:38:51;16.00;;;9.73;;
73841;SDS011;62184;52.006;5.924;2022-09-13T00:41:18;15.52;;;9.70;;
73841;SDS011;62184;52.006;5.924;2022-09-13T00:43:50;16.10;;;10.48;;
73841;SDS011;62184;52.006;5.924;2022-09-13T00:46:20;15.02;;;10.00;;
73841;SDS011;62184;52.006;5.924;2022-09-13T00:48:57;15.18;;;10.18;;
73841;SDS011;62184;52.006;5.924;2022-09-13T00:51:32;16.23;;;10.40;;
73841;SDS011;62184;52.006;5.924;2022-09-13T00:53:59;15.30;;;10.43;;
73841;SDS011;62184;52.006;5.924;2022-09-13T00:56:29;14.55;;;10.50;;
73841;SDS011;62184;52.006;5.924;2022-09-13T00:59:07;14.17;;;10.13;;
73841;SDS011;62184;52.006;5.924;2022-09-13T01:01:41;15.00;;;10.63;;
73841;SDS011;62184;52.006;5.924;2022-09-13T01:04:14;16.63;;;10.60;;
73841;SDS011;62184;52.006;5.924;2022-09-13T01:06:45;16.30;;;11.30;;
73841;SDS011;62184;52.006;5.924;2022-09-13T01:09:14;15.30;;;11.60;;
73841;SDS011;62184;52.006;5.924;2022-09-13T01:11:42;15.50;;;11.13;;
73841;SDS011;62184;52.006;5.924;2022-09-13T01:14:16;17.83;;;11.30;;
73841;SDS011;62184;52.006;5.924;2022-09-13T01:16:45;16.80;;;11.50;;
73841;SDS011;62184;52.006;5.924;2022-09-13T01:19:12;15.65;;;11.50;;
73841;SDS011;62184;52.006;5.924;2022-09-13T01:21:53;16.45;;;11.90;;
73841;SDS011;62184;52.006;5.924;2022-09-13T01:24:58;17.73;;;11.90;;
73841;SDS011;62184;52.006;5.924;2022-09-13T01:28:07;17.52;;;12.20;;
73841;SDS011;62184;52.006;5.924;2022-09-13T01:31:08;17.60;;;11.70;;
73841;SDS011;62184;52.006;5.924;2022-09-13T01:33:49;16.53;;;11.70;;
73841;SDS011;62184;52.006;5.924;2022-09-13T01:36:36;16.43;;;12.03;;
73841;SDS011;62184;52.006;5.924;2022-09-13T01:39:33;16.45;;;11.50;;
73841;SDS011;62184;52.006;5.924;2022-09-13T01:42:25;16.55;;;12.02;;
73841;SDS011;62184;52.006;5.924;2022-09-13T01:45:10;16.53;;;11.97;;
73841;SDS011;62184;52.006;5.924;2022-09-13T01:47:54;16.93;;;11.83;;
73841;SDS011;62184;52.006;5.924;2022-09-13T01:50:30;17.52;;;11.77;;
73841;SDS011;62184;52.006;5.924;2022-09-13T01:53:08;16.00;;;11.35;;
73841;SDS011;62184;52.006;5.924;2022-09-13T01:55:54;16.75;;;11.98;;
73841;SDS011;62184;52.006;5.924;2022-09-13T01:58:31;15.95;;;11.90;;
73841;SDS011;62184;52.006;5.924;2022-09-13T02:01:07;16.35;;;11.75;;
73841;SDS011;62184;52.006;5.924;2022-09-13T02:03:46;15.48;;;11.45;;
73841;SDS011;62184;52.006;5.924;2022-09-13T02:06:22;15.95;;;11.30;;
73841;SDS011;62184;52.006;5.924;2022-09-13T02:08:57;18.48;;;11.75;;
73841;SDS011;62184;52.006;5.924;2022-09-13T02:11:30;15.52;;;11.50;;
73841;SDS011;62184;52.006;5.924;2022-09-13T02:14:01;16.20;;;11.57;;
73841;SDS011;62184;52.006;5.924;2022-09-13T02:16:37;16.00;;;11.05;;
73841;SDS011;62184;52.006;5.924;2022-09-13T02:19:13;17.08;;;11.07;;
73841;SDS011;62184;52.006;5.924;2022-09-13T02:21:45;17.17;;;11.65;;
73841;SDS011;62184;52.006;5.924;2022-09-13T02:24:18;16.45;;;11.65;;
73841;SDS011;62184;52.006;5.924;2022-09-13T02:26:51;14.45;;;10.70;;
73841;SDS011;62184;52.006;5.924;2022-09-13T02:29:23;16.08;;;11.10;;
73841;SDS011;62184;52.006;5.924;2022-09-13T02:31:54;14.97;;;10.90;;
73841;SDS011;62184;52.006;5.924;2022-09-13T02:34:32;14.53;;;10.27;;
73841;SDS011;62184;52.006;5.924;2022-09-13T02:37:03;14.50;;;10.00;;
73841;SDS011;62184;52.006;5.924;2022-09-13T02:39:35;15.97;;;10.87;;
73841;SDS011;62184;52.006;5.924;2022-09-13T02:42:09;14.63;;;9.45;;
73841;SDS011;62184;52.006;5.924;2022-09-13T02:44:45;14.27;;;10.25;;
73841;SDS011;62184;52.006;5.924;2022-09-13T02:47:21;15.00;;;9.50;;
73841;SDS011;62184;52.006;5.924;2022-09-13T02:50:10;13.73;;;8.90;;
73841;SDS011;62184;52.006;5.924;2022-09-13T02:53:00;12.53;;;8.50;;
73841;SDS011;62184;52.006;5.924;2022-09-13T02:55:38;13.40;;;8.98;;
73841;SDS011;62184;52.006;5.924;2022-09-13T02:58:17;13.60;;;9.48;;
73841;SDS011;62184;52.006;5.924;2022-09-13T03:00:54;12.95;;;9.90;;
73841;SDS011;62184;52.006;5.924;2022-09-13T03:03:21;15.02;;;10.80;;
73841;SDS011;62184;52.006;5.924;2022-09-13T03:05:51;14.85;;;10.65;;
73841;SDS011;62184;52.006;5.924;2022-09-13T03:08:18;16.55;;;11.00;;
73841;SDS011;62184;52.006;5.924;2022-09-13T03:10:50;15.57;;;10.88;;
73841;SDS011;62184;52.006;5.924;2022-09-13T03:13:33;16.10;;;11.55;;
73841;SDS011;62184;52.006;5.924;2022-09-13T03:16:35;17.33;;;11.95;;
73841;SDS011;62184;52.006;5.924;2022-09-13T03:22:36;16.90;;;12.17;;
73841;SDS011;62184;52.006;5.924;2022-09-13T03:25:30;16.92;;;11.57;;
73841;SDS011;62184;52.006;5.924;2022-09-13T03:28:19;17.10;;;11.48;;
73841;SDS011;62184;52.006;5.924;2022-09-13T03:31:02;17.50;;;12.10;;
73841;SDS011;62184;52.006;5.924;2022-09-13T03:33:38;17.35;;;12.23;;
73841;SDS011;62184;52.006;5.924;2022-09-13T03:36:18;16.38;;;12.20;;
73841;SDS011;62184;52.006;5.924;2022-09-13T03:38:56;16.50;;;11.13;;
73841;SDS011;62184;52.006;5.924;2022-09-13T03:41:38;16.08;;;11.43;;
73841;SDS011;62184;52.006;5.924;2022-09-13T03:44:11;17.95;;;12.02;;
73841;SDS011;62184;52.006;5.924;2022-09-13T03:46:45;16.50;;;11.90;;
73841;SDS011;62184;52.006;5.924;2022-09-13T03:49:17;16.73;;;11.57;;
73841;SDS011;62184;52.006;5.924;2022-09-13T03:51:47;16.13;;;10.95;;
73841;SDS011;62184;52.006;5.924;2022-09-13T03:54:19;17.90;;;12.10;;
73841;SDS011;62184;52.006;5.924;2022-09-13T03:59:42;17.75;;;12.45;;
73841;SDS011;62184;52.006;5.924;2022-09-13T04:02:13;19.05;;;13.52;;
73841;SDS011;62184;52.006;5.924;2022-09-13T04:04:41;19.13;;;13.43;;
73841;SDS011;62184;52.006;5.924;2022-09-13T04:07:10;18.75;;;13.48;;
73841;SDS011;62184;52.006;5.924;2022-09-13T04:09:43;17.88;;;13.15;;
73841;SDS011;62184;52.006;5.924;2022-09-13T04:12:10;18.55;;;13.48;;
73841;SDS011;62184;52.006;5.924;2022-09-13T04:14:37;18.65;;;13.52;;
73841;SDS011;62184;52.006;5.924;2022-09-13T04:17:03;19.73;;;14.38;;
73841;SDS011;62184;52.006;5.924;2022-09-13T04:19:30;18.83;;;14.85;;
73841;SDS011;62184;52.006;5.924;2022-09-13T04:21:57;16.65;;;12.95;;
73841;SDS011;62184;52.006;5.924;2022-09-13T04:24:24;17.10;;;13.30;;
73841;SDS011;62184;52.006;5.924;2022-09-13T04:26:55;17.90;;;13.60;;
73841;SDS011;62184;52.006;5.924;2022-09-13T04:29:23;20.50;;;14.98;;
73841;SDS011;62184;52.006;5.924;2022-09-13T04:31:51;19.63;;;13.80;;
73841;SDS011;62184;52.006;5.924;2022-09-13T04:34:19;19.00;;;14.03;;
73841;SDS011;62184;52.006;5.924;2022-09-13T04:36:46;19.27;;;14.03;;
73841;SDS011;62184;52.006;5.924;2022-09-13T04:39:13;20.05;;;14.80;;
73841;SDS011;62184;52.006;5.924;2022-09-13T04:41:40;18.60;;;14.13;;
73841;SDS011;62184;52.006;5.924;2022-09-13T04:44:09;17.75;;;13.27;;
73841;SDS011;62184;52.006;5.924;2022-09-13T04:46:36;21.75;;;14.77;;
73841;SDS011;62184;52.006;5.924;2022-09-13T04:49:02;21.70;;;15.43;;
73841;SDS011;62184;52.006;5.924;2022-09-13T04:51:29;20.95;;;15.75;;
73841;SDS011;62184;52.006;5.924;2022-09-13T04:53:55;22.10;;;16.52;;
73841;SDS011;62184;52.006;5.924;2022-09-13T04:56:22;20.88;;;15.98;;
73841;SDS011;62184;52.006;5.924;2022-09-13T04:58:49;22.85;;;16.08;;
73841;SDS011;62184;52.006;5.924;2022-09-13T05:01:18;21.75;;;16.20;;
73841;SDS011;62184;52.006;5.924;2022-09-13T05:03:46;22.77;;;17.15;;
73841;SDS011;62184;52.006;5.924;2022-09-13T05:06:14;23.90;;;17.42;;
73841;SDS011;62184;52.006;5.924;2022-09-13T05:08:41;22.35;;;16.83;;
73841;SDS011;62184;52.006;5.924;2022-09-13T05:11:09;24.35;;;17.02;;
73841;SDS011;62184;52.006;5.924;2022-09-13T05:13:36;21.02;;;15.70;;
73841;SDS011;62184;52.006;5.924;2022-09-13T05:16:03;21.35;;;16.17;;
73841;SDS011;62184;52.006;5.924;2022-09-13T05:18:35;22.37;;;16.37;;
73841;SDS011;62184;52.006;5.924;2022-09-13T05:21:02;21.33;;;15.05;;
73841;SDS011;62184;52.006;5.924;2022-09-13T05:23:30;20.33;;;15.20;;
73841;SDS011;62184;52.006;5.924;2022-09-13T05:25:58;21.02;;;14.75;;
73841;SDS011;62184;52.006;5.924;2022-09-13T05:28:28;19.55;;;14.63;;
73841;SDS011;62184;52.006;5.924;2022-09-13T05:30:57;19.73;;;14.23;;
73841;SDS011;62184;52.006;5.924;2022-09-13T05:33:26;19.88;;;13.90;;
73841;SDS011;62184;52.006;5.924;2022-09-13T05:35:58;19.95;;;13.93;;
73841;SDS011;62184;52.006;5.924;2022-09-13T05:38:24;19.38;;;14.00;;
73841;SDS011;62184;52.006;5.924;2022-09-13T05:40:52;18.30;;;13.50;;
73841;SDS011;62184;52.006;5.924;2022-09-13T05:43:20;18.88;;;13.43;;
73841;SDS011;62184;52.006;5.924;2022-09-13T05:45:46;20.00;;;14.02;;
73841;SDS011;62184;52.006;5.924;2022-09-13T05:48:13;21.40;;;15.20;;
73841;SDS011;62184;52.006;5.924;2022-09-13T05:50:39;18.77;;;13.93;;
73841;SDS011;62184;52.006;5.924;2022-09-13T05:53:08;18.98;;;14.15;;
73841;SDS011;62184;52.006;5.924;2022-09-13T05:55:34;19.90;;;14.25;;
73841;SDS011;62184;52.006;5.924;2022-09-13T05:58:01;20.42;;;13.23;;
73841;SDS011;62184;52.006;5.924;2022-09-13T06:00:27;19.63;;;13.73;;
73841;SDS011;62184;52.006;5.924;2022-09-13T06:02:54;18.97;;;13.53;;
73841;SDS011;62184;52.006;5.924;2022-09-13T06:05:21;20.60;;;14.05;;
73841;SDS011;62184;52.006;5.924;2022-09-13T06:07:47;20.17;;;14.52;;
73841;SDS011;62184;52.006;5.924;2022-09-13T06:10:16;19.25;;;13.98;;
73841;SDS011;62184;52.006;5.924;2022-09-13T06:12:43;22.27;;;15.50;;
73841;SDS011;62184;52.006;5.924;2022-09-13T06:15:09;20.65;;;14.57;;
73841;SDS011;62184;52.006;5.924;2022-09-13T06:17:36;21.75;;;13.90;;
73841;SDS011;62184;52.006;5.924;2022-09-13T06:20:02;20.00;;;14.70;;
73841;SDS011;62184;52.006;5.924;2022-09-13T06:22:29;21.60;;;14.57;;
73841;SDS011;62184;52.006;5.924;2022-09-13T06:24:56;21.55;;;15.73;;
73841;SDS011;62184;52.006;5.924;2022-09-13T06:27:25;21.15;;;15.00;;
73841;SDS011;62184;52.006;5.924;2022-09-13T06:29:51;21.05;;;15.18;;
73841;SDS011;62184;52.006;5.924;2022-09-13T06:32:18;22.08;;;15.80;;
73841;SDS011;62184;52.006;5.924;2022-09-13T06:34:44;21.80;;;15.90;;
73841;SDS011;62184;52.006;5.924;2022-09-13T06:37:11;21.83;;;16.10;;
73841;SDS011;62184;52.006;5.924;2022-09-13T06:39:38;21.70;;;16.17;;
73841;SDS011;62184;52.006;5.924;2022-09-13T06:42:04;24.93;;;17.03;;
73841;SDS011;62184;52.006;5.924;2022-09-13T06:44:33;23.55;;;17.35;;
73841;SDS011;62184;52.006;5.924;2022-09-13T06:47:00;25.80;;;17.63;;
73841;SDS011;62184;52.006;5.924;2022-09-13T06:49:26;25.60;;;17.13;;
73841;SDS011;62184;52.006;5.924;2022-09-13T06:51:52;27.38;;;18.70;;
73841;SDS011;62184;52.006;5.924;2022-09-13T06:54:19;25.27;;;17.55;;
73841;SDS011;62184;52.006;5.924;2022-09-13T06:56:45;29.27;;;18.58;;
73841;SDS011;62184;52.006;5.924;2022-09-13T06:59:11;27.02;;;17.92;;
73841;SDS011;62184;52.006;5.924;2022-09-13T07:01:41;29.42;;;18.80;;
73841;SDS011;62184;52.006;5.924;2022-09-13T07:04:09;29.70;;;19.05;;
73841;SDS011;62184;52.006;5.924;2022-09-13T07:06:39;30.35;;;19.65;;
73841;SDS011;62184;52.006;5.924;2022-09-13T07:09:08;29.57;;;19.97;;
73841;SDS011;62184;52.006;5.924;2022-09-13T07:11:38;30.13;;;20.73;;
73841;SDS011;62184;52.006;5.924;2022-09-13T07:14:06;30.13;;;19.73;;
73841;SDS011;62184;52.006;5.924;2022-09-13T07:16:34;29.75;;;20.25;;
73841;SDS011;62184;52.006;5.924;2022-09-13T07:19:06;28.85;;;19.42;;
73841;SDS011;62184;52.006;5.924;2022-09-13T07:21:38;27.20;;;19.20;;
73841;SDS011;62184;52.006;5.924;2022-09-13T07:24:04;26.10;;;18.13;;
73841;SDS011;62184;52.006;5.924;2022-09-13T07:26:31;25.57;;;16.97;;
73841;SDS011;62184;52.006;5.924;2022-09-13T07:28:58;26.02;;;16.80;;
73841;SDS011;62184;52.006;5.924;2022-09-13T07:31:28;25.27;;;16.55;;
73841;SDS011;62184;52.006;5.924;2022-09-13T07:33:58;25.15;;;17.00;;
73841;SDS011;62184;52.006;5.924;2022-09-13T07:36:29;23.38;;;15.60;;
73841;SDS011;62184;52.006;5.924;2022-09-13T07:38:58;22.67;;;15.37;;
73841;SDS011;62184;52.006;5.924;2022-09-13T07:41:26;23.15;;;15.77;;
73841;SDS011;62184;52.006;5.924;2022-09-13T07:43:54;21.38;;;14.43;;
73841;SDS011;62184;52.006;5.924;2022-09-13T07:46:23;21.13;;;14.25;;
73841;SDS011;62184;52.006;5.924;2022-09-13T07:48:53;18.73;;;13.20;;
73841;SDS011;62184;52.006;5.924;2022-09-13T07:51:22;20.85;;;13.75;;
73841;SDS011;62184;52.006;5.924;2022-09-13T07:53:54;17.97;;;11.90;;
73841;SDS011;62184;52.006;5.924;2022-09-13T07:56:23;17.33;;;11.98;;
73841;SDS011;62184;52.006;5.924;2022-09-13T07:58:51;16.17;;;11.13;;
73841;SDS011;62184;52.006;5.924;2022-09-13T08:01:20;15.50;;;10.20;;
73841;SDS011;62184;52.006;5.924;2022-09-13T08:03:52;14.45;;;9.23;;
73841;SDS011;62184;52.006;5.924;2022-09-13T08:06:20;14.23;;;9.45;;
73841;SDS011;62184;52.006;5.924;2022-09-13T08:08:48;14.03;;;8.80;;
73841;SDS011;62184;52.006;5.924;2022-09-13T08:11:17;12.90;;;7.97;;
73841;SDS011;62184;52.006;5.924;2022-09-13T08:13:47;13.43;;;8.57;;
73841;SDS011;62184;52.006;5.924;2022-09-13T08:16:17;12.57;;;8.18;;
73841;SDS011;62184;52.006;5.924;2022-09-13T08:18:47;18.70;;;10.32;;
73841;SDS011;62184;52.006;5.924;2022-09-13T08:21:17;18.13;;;12.23;;
73841;SDS011;62184;52.006;5.924;2022-09-13T08:23:45;19.50;;;12.27;;
73841;SDS011;62184;52.006;5.924;2022-09-13T08:26:12;22.45;;;14.68;;
73841;SDS011;62184;52.006;5.924;2022-09-13T08:28:42;24.10;;;16.52;;
73841;SDS011;62184;52.006;5.924;2022-09-13T08:31:08;27.35;;;17.52;;
73841;SDS011;62184;52.006;5.924;2022-09-13T08:33:37;26.23;;;17.60;;
73841;SDS011;62184;52.006;5.924;2022-09-13T08:36:04;26.15;;;17.98;;
73841;SDS011;62184;52.006;5.924;2022-09-13T08:38:31;26.50;;;17.70;;
73841;SDS011;62184;52.006;5.924;2022-09-13T08:40:58;27.65;;;18.88;;
73841;SDS011;62184;52.006;5.924;2022-09-13T08:43:31;23.88;;;16.73;;
73841;SDS011;62184;52.006;5.924;2022-09-13T08:46:17;25.00;;;17.05;;
73841;SDS011;62184;52.006;5.924;2022-09-13T08:48:51;22.77;;;15.57;;
73841;SDS011;62184;52.006;5.924;2022-09-13T08:51:27;20.63;;;14.40;;
73841;SDS011;62184;52.006;5.924;2022-09-13T08:54:02;19.42;;;13.73;;
73841;SDS011;62184;52.006;5.924;2022-09-13T08:56:33;19.30;;;12.88;;
73841;SDS011;62184;52.006;5.924;2022-09-13T08:59:17;18.47;;;12.87;;
73841;SDS011;62184;52.006;5.924;2022-09-13T09:02:01;18.85;;;12.48;;
73841;SDS011;62184;52.006;5.924;2022-09-13T09:04:47;16.65;;;11.98;;
73841;SDS011;62184;52.006;5.924;2022-09-13T09:07:23;16.42;;;10.63;;
73841;SDS011;62184;52.006;5.924;2022-09-13T09:09:57;15.60;;;10.23;;
73841;SDS011;62184;52.006;5.924;2022-09-13T09:12:30;13.98;;;9.93;;
73841;SDS011;62184;52.006;5.924;2022-09-13T09:15:08;12.73;;;9.15;;
73841;SDS011;62184;52.006;5.924;2022-09-13T09:17:45;12.35;;;8.65;;
73841;SDS011;62184;52.006;5.924;2022-09-13T09:20:22;13.80;;;9.57;;
73841;SDS011;62184;52.006;5.924;2022-09-13T09:22:53;14.80;;;9.30;;
73841;SDS011;62184;52.006;5.924;2022-09-13T09:25:21;13.90;;;9.63;;
73841;SDS011;62184;52.006;5.924;2022-09-13T09:27:50;13.90;;;9.40;;
73841;SDS011;62184;52.006;5.924;2022-09-13T09:30:19;14.15;;;8.88;;
73841;SDS011;62184;52.006;5.924;2022-09-13T09:32:48;12.80;;;8.17;;
73841;SDS011;62184;52.006;5.924;2022-09-13T09:35:33;11.95;;;7.68;;
73841;SDS011;62184;52.006;5.924;2022-09-13T09:38:25;10.83;;;6.87;;
73841;SDS011;62184;52.006;5.924;2022-09-13T09:41:02;10.80;;;7.22;;
73841;SDS011;62184;52.006;5.924;2022-09-13T09:43:38;10.00;;;6.13;;
73841;SDS011;62184;52.006;5.924;2022-09-13T09:46:15;8.57;;;5.93;;
73841;SDS011;62184;52.006;5.924;2022-09-13T09:48:53;9.93;;;5.40;;
73841;SDS011;62184;52.006;5.924;2022-09-13T09:51:32;9.88;;;5.85;;
73841;SDS011;62184;52.006;5.924;2022-09-13T09:53:59;9.50;;;5.85;;
73841;SDS011;62184;52.006;5.924;2022-09-13T09:56:30;8.50;;;5.00;;
73841;SDS011;62184;52.006;5.924;2022-09-13T09:58:59;7.93;;;4.90;;
73841;SDS011;62184;52.006;5.924;2022-09-13T10:01:28;8.88;;;5.68;;
73841;SDS011;62184;52.006;5.924;2022-09-13T10:04:00;9.18;;;5.05;;
73841;SDS011;62184;52.006;5.924;2022-09-13T10:06:33;8.00;;;4.70;;
73841;SDS011;62184;52.006;5.924;2022-09-13T10:09:03;7.72;;;4.90;;
73841;SDS011;62184;52.006;5.924;2022-09-13T10:11:42;10.05;;;5.88;;
73841;SDS011;62184;52.006;5.924;2022-09-13T10:14:26;9.32;;;5.70;;
73841;SDS011;62184;52.006;5.924;2022-09-13T10:17:15;8.07;;;5.07;;
73841;SDS011;62184;52.006;5.924;2022-09-13T10:19:50;8.57;;;4.90;;
73841;SDS011;62184;52.006;5.924;2022-09-13T10:22:20;8.60;;;5.20;;
73841;SDS011;62184;52.006;5.924;2022-09-13T10:24:46;7.63;;;5.15;;
73841;SDS011;62184;52.006;5.924;2022-09-13T10:27:20;10.00;;;5.93;;
73841;SDS011;62184;52.006;5.924;2022-09-13T10:29:55;8.25;;;5.40;;
73841;SDS011;62184;52.006;5.924;2022-09-13T10:32:29;7.68;;;4.70;;
73841;SDS011;62184;52.006;5.924;2022-09-13T10:34:58;7.95;;;4.63;;
73841;SDS011;62184;52.006;5.924;2022-09-13T10:37:32;8.80;;;4.55;;
73841;SDS011;62184;52.006;5.924;2022-09-13T10:40:00;8.33;;;4.63;;
73841;SDS011;62184;52.006;5.924;2022-09-13T10:42:32;8.70;;;4.60;;
73841;SDS011;62184;52.006;5.924;2022-09-13T10:44:59;7.43;;;4.40;;
73841;SDS011;62184;52.006;5.924;2022-09-13T10:47:31;7.38;;;4.00;;
73841;SDS011;62184;52.006;5.924;2022-09-13T10:50:11;6.93;;;3.60;;
73841;SDS011;62184;52.006;5.924;2022-09-13T10:52:47;7.53;;;3.90;;
73841;SDS011;62184;52.006;5.924;2022-09-13T10:55:26;7.33;;;3.60;;
73841;SDS011;62184;52.006;5.924;2022-09-13T11:00:54;6.72;;;3.30;;
73841;SDS011;62184;52.006;5.924;2022-09-13T11:04:24;6.70;;;3.58;;
73841;SDS011;62184;52.006;5.924;2022-09-13T11:07:25;5.40;;;2.80;;
73841;SDS011;62184;52.006;5.924;2022-09-13T11:10:28;5.38;;;2.67;;
73841;SDS011;62184;52.006;5.924;2022-09-13T11:13:12;5.00;;;2.40;;
73841;SDS011;62184;52.006;5.924;2022-09-13T11:15:52;5.25;;;2.60;;
73841;SDS011;62184;52.006;5.924;2022-09-13T11:18:34;4.95;;;2.50;;
73841;SDS011;62184;52.006;5.924;2022-09-13T11:21:38;5.80;;;2.42;;
73841;SDS011;62184;52.006;5.924;2022-09-13T11:24:24;5.40;;;2.60;;
73841;SDS011;62184;52.006;5.924;2022-09-13T11:27:10;5.95;;;2.42;;
73841;SDS011;62184;52.006;5.924;2022-09-13T11:29:57;5.30;;;2.30;;
73841;SDS011;62184;52.006;5.924;2022-09-13T11:32:39;5.10;;;1.70;;
73841;SDS011;62184;52.006;5.924;2022-09-13T11:35:47;5.45;;;1.90;;
73841;SDS011;62184;52.006;5.924;2022-09-13T11:38:40;6.40;;;1.90;;
73841;SDS011;62184;52.006;5.924;2022-09-13T11:41:26;4.70;;;1.83;;
73841;SDS011;62184;52.006;5.924;2022-09-13T11:44:12;4.80;;;1.85;;
73841;SDS011;62184;52.006;5.924;2022-09-13T11:47:02;4.57;;;1.85;;
73841;SDS011;62184;52.006;5.924;2022-09-13T11:49:57;3.70;;;1.60;;
73841;SDS011;62184;52.006;5.924;2022-09-13T11:52:50;4.30;;;1.75;;
73841;SDS011;62184;52.006;5.924;2022-09-13T11:55:33;4.38;;;1.60;;
73841;SDS011;62184;52.006;5.924;2022-09-13T11:58:09;4.82;;;1.50;;
73841;SDS011;62184;52.006;5.924;2022-09-13T12:00:44;4.90;;;1.70;;
73841;SDS011;62184;52.006;5.924;2022-09-13T12:03:20;5.35;;;1.58;;
73841;SDS011;62184;52.006;5.924;2022-09-13T12:05:57;4.80;;;1.52;;
73841;SDS011;62184;52.006;5.924;2022-09-13T12:08:29;3.88;;;1.30;;
73841;SDS011;62184;52.006;5.924;2022-09-13T12:11:05;4.00;;;1.30;;
73841;SDS011;62184;52.006;5.924;2022-09-13T12:13:40;4.82;;;1.30;;
73841;SDS011;62184;52.006;5.924;2022-09-13T12:16:14;4.93;;;1.40;;
73841;SDS011;62184;52.006;5.924;2022-09-13T12:18:47;5.70;;;1.42;;
73841;SDS011;62184;52.006;5.924;2022-09-13T12:21:19;4.75;;;1.50;;
73841;SDS011;62184;52.006;5.924;2022-09-13T12:23:54;4.85;;;1.60;;
73841;SDS011;62184;52.006;5.924;2022-09-13T12:26:32;5.18;;;1.50;;
73841;SDS011;62184;52.006;5.924;2022-09-13T12:29:10;4.83;;;1.40;;
73841;SDS011;62184;52.006;5.924;2022-09-13T12:31:43;4.93;;;1.30;;
73841;SDS011;62184;52.006;5.924;2022-09-13T12:34:12;4.45;;;1.60;;
73841;SDS011;62184;52.006;5.924;2022-09-13T12:36:55;4.20;;;1.30;;
73841;SDS011;62184;52.006;5.924;2022-09-13T12:39:56;4.22;;;1.40;;
73841;SDS011;62184;52.006;5.924;2022-09-13T12:43:06;5.70;;;1.47;;
73841;SDS011;62184;52.006;5.924;2022-09-13T12:46:22;4.25;;;1.45;;
73841;SDS011;62184;52.006;5.924;2022-09-13T12:52:52;5.45;;;1.75;;
73841;SDS011;62184;52.006;5.924;2022-09-13T12:58:48;5.10;;;1.50;;
73841;SDS011;62184;52.006;5.924;2022-09-13T13:01:45;4.32;;;1.40;;
73841;SDS011;62184;52.006;5.924;2022-09-13T13:04:14;4.77;;;1.30;;
73841;SDS011;62184;52.006;5.924;2022-09-13T13:06:47;4.82;;;1.50;;
73841;SDS011;62184;52.006;5.924;2022-09-13T13:09:22;4.93;;;1.50;;
73841;SDS011;62184;52.006;5.924;2022-09-13T13:12:00;5.97;;;1.60;;
73841;SDS011;62184;52.006;5.924;2022-09-13T13:14:42;4.95;;;1.60;;
73841;SDS011;62184;52.006;5.924;2022-09-13T13:23:25;4.50;;;1.10;;
73841;SDS011;62184;52.006;5.924;2022-09-13T13:25:55;5.30;;;1.35;;
73841;SDS011;62184;52.006;5.924;2022-09-13T13:31:44;4.22;;;1.20;;
73841;SDS011;62184;52.006;5.924;2022-09-13T13:34:36;3.90;;;1.23;;
73841;SDS011;62184;52.006;5.924;2022-09-13T13:37:25;4.40;;;1.50;;
73841;SDS011;62184;52.006;5.924;2022-09-13T13:45:55;4.70;;;1.47;;
73841;SDS011;62184;52.006;5.924;2022-09-13T13:48:46;4.70;;;1.60;;
73841;SDS011;62184;52.006;5.924;2022-09-13T13:51:20;5.50;;;1.27;;
73841;SDS011;62184;52.006;5.924;2022-09-13T13:53:54;4.72;;;1.45;;
73841;SDS011;62184;52.006;5.924;2022-09-13T13:59:25;4.10;;;1.40;;
73841;SDS011;62184;52.006;5.924;2022-09-13T14:01:57;4.47;;;1.20;;
73841;SDS011;62184;52.006;5.924;2022-09-13T14:04:41;5.03;;;1.33;;
73841;SDS011;62184;52.006;5.924;2022-09-13T14:07:42;5.97;;;1.17;;
73841;SDS011;62184;52.006;5.924;2022-09-13T14:10:57;4.83;;;1.10;;
73841;SDS011;62184;52.006;5.924;2022-09-13T14:13:39;5.05;;;1.10;;
73841;SDS011;62184;52.006;5.924;2022-09-13T14:16:24;4.35;;;1.30;;
73841;SDS011;62184;52.006;5.924;2022-09-13T14:19:17;3.60;;;1.10;;
73841;SDS011;62184;52.006;5.924;2022-09-13T14:24:41;5.43;;;1.33;;
73841;SDS011;62184;52.006;5.924;2022-09-13T14:27:12;4.72;;;1.30;;
73841;SDS011;62184;52.006;5.924;2022-09-13T14:29:44;5.10;;;1.60;;
73841;SDS011;62184;52.006;5.924;2022-09-13T14:32:15;5.00;;;1.40;;
73841;SDS011;62184;52.006;5.924;2022-09-13T14:34:52;4.85;;;1.50;;
73841;SDS011;62184;52.006;5.924;2022-09-13T14:37:27;4.22;;;1.50;;
73841;SDS011;62184;52.006;5.924;2022-09-13T14:39:57;5.00;;;1.52;;
73841;SDS011;62184;52.006;5.924;2022-09-13T14:42:36;3.70;;;1.23;;
73841;SDS011;62184;52.006;5.924;2022-09-13T14:45:05;4.95;;;1.30;;
73841;SDS011;62184;52.006;5.924;2022-09-13T14:47:39;5.13;;;1.38;;
73841;SDS011;62184;52.006;5.924;2022-09-13T14:50:21;4.50;;;1.40;;
73841;SDS011;62184;52.006;5.924;2022-09-13T14:52:55;5.53;;;1.30;;
73841;SDS011;62184;52.006;5.924;2022-09-13T14:55:28;4.90;;;1.30;;
73841;SDS011;62184;52.006;5.924;2022-09-13T14:58:02;5.43;;;1.50;;
73841;SDS011;62184;52.006;5.924;2022-09-13T15:00:34;5.33;;;1.57;;
73841;SDS011;62184;52.006;5.924;2022-09-13T15:03:15;5.75;;;1.55;;
73841;SDS011;62184;52.006;5.924;2022-09-13T15:05:49;4.63;;;1.30;;
73841;SDS011;62184;52.006;5.924;2022-09-13T15:08:34;5.03;;;1.40;;
73841;SDS011;62184;52.006;5.924;2022-09-13T15:11:11;4.57;;;1.53;;
73841;SDS011;62184;52.006;5.924;2022-09-13T15:13:59;4.80;;;1.48;;
73841;SDS011;62184;52.006;5.924;2022-09-13T15:16:27;4.47;;;1.30;;
73841;SDS011;62184;52.006;5.924;2022-09-13T15:21:42;11.93;;;1.80;;
73841;SDS011;62184;52.006;5.924;2022-09-13T15:24:15;4.50;;;1.50;;
73841;SDS011;62184;52.006;5.924;2022-09-13T15:26:46;4.38;;;1.40;;
73841;SDS011;62184;52.006;5.924;2022-09-13T15:29:15;4.75;;;1.40;;
73841;SDS011;62184;52.006;5.924;2022-09-13T15:31:44;5.00;;;1.30;;
73841;SDS011;62184;52.006;5.924;2022-09-13T15:34:10;4.85;;;1.40;;
73841;SDS011;62184;52.006;5.924;2022-09-13T15:36:47;4.90;;;1.35;;
73841;SDS011;62184;52.006;5.924;2022-09-13T15:39:30;4.57;;;1.30;;
73841;SDS011;62184;52.006;5.924;2022-09-13T15:42:11;5.47;;;1.30;;
73841;SDS011;62184;52.006;5.924;2022-09-13T15:44:37;6.03;;;1.38;;
73841;SDS011;62184;52.006;5.924;2022-09-13T15:47:07;4.10;;;1.33;;
73841;SDS011;62184;52.006;5.924;2022-09-13T15:49:36;5.85;;;1.45;;
73841;SDS011;62184;52.006;5.924;2022-09-13T15:52:05;4.50;;;1.33;;
73841;SDS011;62184;52.006;5.924;2022-09-13T15:54:36;4.60;;;1.48;;
73841;SDS011;62184;52.006;5.924;2022-09-13T15:57:05;5.90;;;1.48;;